Time;durP1;ratioP1;P1;durP2;ratioP2;P2;SDS_P1;SDS_P2;PMS_P1;PMS_P2;Temp;Humidity;BMP_temperature;BMP_pressure;BME280_temperature;BME280_humidity;BME280_pressure;Samples;Min_cycle;Max_cycle;Signal;HPM_P1;HPM_P2
2023/09/19 00:02:11;;;;;;;3.25;1.60;;;;;;;15.45;100.00;99713.59;5044120;28;20758;-87
2023/09/19 00:04:44;;;;;;;3.72;1.85;;;;;;;15.31;100.00;99718.53;5026280;28;20455;-88
2023/09/19 00:07:17;;;;;;;3.33;1.80;;;;;;;15.35;100.00;99713.19;5029689;28;20422;-87
2023/09/19 00:09:51;;;;;;;3.72;1.70;;;;;;;15.29;100.00;99718.09;5044454;28;20427;-86
2023/09/19 00:12:24;;;;;;;7.07;2.03;;;;;;;15.37;100.00;99716.38;5030378;28;20442;-88
2023/09/19 00:14:53;;;;;;;3.87;1.70;;;;;;;15.32;100.00;99711.13;5030688;28;20423;-90
2023/09/19 00:17:22;;;;;;;4.07;1.83;;;;;;;15.27;100.00;99714.84;5029668;28;20431;-86
2023/09/19 00:19:52;;;;;;;5.28;1.80;;;;;;;15.24;100.00;99721.03;5030091;28;20427;-90
2023/09/19 00:22:26;;;;;;;5.35;1.88;;;;;;;15.33;100.00;99721.75;5030454;28;21037;-88
2023/09/19 00:24:55;;;;;;;4.95;2.00;;;;;;;15.32;100.00;99720.16;5046797;28;20870;-87
2023/09/19 00:27:23;;;;;;;5.65;2.08;;;;;;;15.33;100.00;99723.69;5035614;28;20435;-87
2023/09/19 00:29:52;;;;;;;6.25;2.20;;;;;;;15.22;100.00;99726.84;5027832;28;20899;-89
2023/09/19 00:32:22;;;;;;;4.20;2.00;;;;;;;15.26;100.00;99721.47;5046438;28;20434;-89
2023/09/19 00:34:50;;;;;;;3.92;1.90;;;;;;;15.14;100.00;99719.47;5026695;28;20822;-87
2023/09/19 00:37:19;;;;;;;5.80;2.05;;;;;;;15.14;100.00;99724.97;5025056;28;20438;-88
2023/09/19 00:39:52;;;;;;;5.82;2.00;;;;;;;15.29;100.00;99723.56;5030296;28;20407;-90
2023/09/19 00:42:21;;;;;;;5.88;2.00;;;;;;;15.30;100.00;99719.66;5045558;28;20423;-88
2023/09/19 00:44:54;;;;;;;5.03;2.10;;;;;;;15.22;100.00;99724.09;5045572;28;20907;-88
2023/09/19 00:47:25;;;;;;;7.05;2.25;;;;;;;15.19;100.00;99718.47;5034845;28;20423;-92
2023/09/19 00:49:59;;;;;;;7.95;2.25;;;;;;;15.28;100.00;99719.22;5029581;28;20427;-92
2023/09/19 00:52:28;;;;;;;6.65;2.17;;;;;;;15.19;100.00;99724.78;5029872;28;20438;-85
2023/09/19 00:55:02;;;;;;;6.18;2.20;;;;;;;15.22;100.00;99718.63;5028433;28;20421;-89
2023/09/19 00:57:33;;;;;;;9.25;2.42;;;;;;;15.13;100.00;99717.88;5027185;28;21145;-87
2023/09/19 01:00:10;;;;;;;6.35;2.33;;;;;;;15.03;100.00;99713.59;5022693;28;20913;-87
2023/09/19 01:02:45;;;;;;;5.80;2.40;;;;;;;15.17;100.00;99718.03;5029483;28;20968;-87
2023/09/19 01:05:13;;;;;;;6.65;2.47;;;;;;;15.09;100.00;99717.75;5029164;28;21008;-88
2023/09/19 01:07:41;;;;;;;5.03;2.20;;;;;;;15.24;100.00;99731.97;5045423;28;20440;-88
2023/09/19 01:10:14;;;;;;;8.52;2.55;;;;;;;15.08;100.00;99718.88;5030284;28;20620;-88
2023/09/19 01:12:55;;;;;;;7.15;2.85;;;;;;;15.03;100.00;99724.56;5037791;28;20911;-88
2023/09/19 01:15:34;;;;;;;10.53;2.77;;;;;;;15.18;100.00;99730.56;5028943;28;20427;-88
2023/09/19 01:18:16;;;;;;;6.82;2.58;;;;;;;15.19;100.00;99722.03;5030122;28;20430;-90
2023/09/19 01:20:53;;;;;;;7.18;2.42;;;;;;;15.19;100.00;99729.44;5029838;28;20415;-87
2023/09/19 01:23:30;;;;;;;6.28;2.70;;;;;;;15.07;100.00;99727.44;5029959;28;20772;-86
2023/09/19 01:26:25;;;;;;;5.28;2.53;;;;;;;15.07;100.00;99724.69;5028650;28;20435;-89
2023/09/19 01:29:02;;;;;;;8.57;3.00;;;;;;;15.08;100.00;99729.84;5025855;28;20423;-89
2023/09/19 01:31:37;;;;;;;9.40;3.03;;;;;;;14.98;100.00;99732.97;5032893;28;20859;-88
2023/09/19 01:34:07;;;;;;;7.88;3.08;;;;;;;15.11;100.00;99739.34;5031354;28;20403;-88
2023/09/19 01:36:38;;;;;;;7.00;3.30;;;;;;;15.07;100.00;99733.72;5030251;28;20438;-88
2023/09/19 01:39:12;;;;;;;8.57;3.22;;;;;;;15.09;100.00;99725.16;5030143;28;20425;-87
2023/09/19 01:42:00;;;;;;;8.20;3.20;;;;;;;14.99;100.00;99733.78;5029296;28;20449;-89
2023/09/19 01:44:38;;;;;;;7.88;3.58;;;;;;;14.96;100.00;99740.72;5029322;28;20423;-91
2023/09/19 01:47:17;;;;;;;8.57;3.78;;;;;;;14.96;100.00;99746.22;5044252;28;20426;-88
2023/09/19 01:50:02;;;;;;;9.15;3.50;;;;;;;14.92;100.00;99737.03;5049292;28;20436;-87
2023/09/19 01:52:37;;;;;;;8.65;3.83;;;;;;;14.94;100.00;99732.03;5047861;28;20435;-89
2023/09/19 01:55:10;;;;;;;6.83;3.60;;;;;;;14.85;100.00;99743.03;5034774;28;20437;-90
2023/09/19 01:57:53;;;;;;;9.80;3.60;;;;;;;14.86;100.00;99735.63;5044443;28;20783;-91
2023/09/19 02:00:23;;;;;;;9.35;3.78;;;;;;;14.79;100.00;99736.97;5042069;28;20425;-86
2023/09/19 02:02:58;;;;;;;9.07;4.10;;;;;;;14.88;100.00;99744.31;5021824;28;20423;-90
2023/09/19 02:05:33;;;;;;;11.45;3.90;;;;;;;14.91;100.00;99740.91;5032993;28;20427;-90
2023/09/19 02:08:01;;;;;;;8.50;4.10;;;;;;;14.90;100.00;99744.78;5032706;28;20419;-90
2023/09/19 02:10:34;;;;;;;10.38;4.10;;;;;;;14.83;100.00;99744.50;5035160;28;20430;-86
2023/09/19 02:13:04;;;;;;;9.00;4.28;;;;;;;14.88;100.00;99741.59;5033840;28;20419;-90
2023/09/19 02:15:34;;;;;;;10.93;5.10;;;;;;;14.90;100.00;99750.25;5034055;28;20858;-87
2023/09/19 02:18:04;;;;;;;8.95;4.40;;;;;;;14.95;100.00;99758.28;5045238;28;21152;-88
2023/09/19 02:20:33;;;;;;;9.95;4.13;;;;;;;14.99;100.00;99751.00;5049436;28;20430;-89
2023/09/19 02:23:02;;;;;;;10.10;4.10;;;;;;;14.97;100.00;99750.56;5032518;28;20883;-85
2023/09/19 02:25:37;;;;;;;10.70;4.25;;;;;;;15.05;100.00;99773.53;5032765;28;20411;-89
2023/09/19 02:28:06;;;;;;;12.30;4.43;;;;;;;15.02;100.00;99768.72;5032319;28;20414;-88
2023/09/19 02:30:36;;;;;;;9.57;4.03;;;;;;;14.94;100.00;99776.69;5032939;28;20430;-90
2023/09/19 02:33:05;;;;;;;9.45;4.18;;;;;;;15.04;100.00;99774.66;5041757;28;20434;-88
2023/09/19 02:35:36;;;;;;;9.43;4.00;;;;;;;15.06;100.00;99781.44;5033014;28;20434;-87
2023/09/19 02:38:06;;;;;;;9.13;4.17;;;;;;;15.10;100.00;99789.78;5048439;28;20430;-86
2023/09/19 02:40:35;;;;;;;12.33;4.40;;;;;;;15.02;100.00;99783.22;5032710;28;20407;-88
2023/09/19 02:43:09;;;;;;;8.75;4.10;;;;;;;14.90;100.00;99796.81;5032453;28;20917;-90
2023/09/19 02:45:37;;;;;;;9.32;4.00;;;;;;;14.98;100.00;99795.97;5032319;28;20430;-88
2023/09/19 02:48:07;;;;;;;8.30;4.05;;;;;;;14.99;100.00;99788.59;5031832;28;20422;-89
2023/09/19 02:50:36;;;;;;;10.63;4.47;;;;;;;14.94;100.00;99795.84;5032601;28;20426;-89
2023/09/19 02:53:05;;;;;;;8.95;4.30;;;;;;;14.95;100.00;99802.91;5030782;28;20942;-87
2023/09/19 02:55:34;;;;;;;7.93;3.83;;;;;;;14.91;100.00;99801.97;5029945;28;20419;-88
2023/09/19 02:58:05;;;;;;;8.65;3.95;;;;;;;14.98;100.00;99798.72;5033240;28;20990;-89
2023/09/19 03:00:33;;;;;;;10.25;3.78;;;;;;;14.92;100.00;99806.31;5032030;28;20445;-88
2023/09/19 03:03:09;;;;;;;9.07;4.00;;;;;;;14.93;100.00;99813.41;5046232;28;20514;-90
2023/09/19 03:05:46;;;;;;;10.52;4.20;;;;;;;14.90;100.00;99802.31;5032449;28;20422;-87
2023/09/19 03:08:20;;;;;;;9.68;4.03;;;;;;;14.85;100.00;99808.78;5032589;28;20423;-88
2023/09/19 03:10:49;;;;;;;9.50;3.83;;;;;;;14.76;100.00;99806.09;5049339;28;20422;-88
2023/09/19 03:13:22;;;;;;;10.20;4.00;;;;;;;14.77;100.00;99810.41;5046264;28;20427;-86
2023/09/19 03:15:56;;;;;;;10.23;3.83;;;;;;;14.78;100.00;99811.25;5032269;28;20438;-90
2023/09/19 03:18:31;;;;;;;11.80;4.07;;;;;;;14.78;100.00;99808.50;5032135;28;20423;-91
2023/09/19 03:21:00;;;;;;;8.32;4.10;;;;;;;14.74;100.00;99804.81;5032194;28;20419;-86
2023/09/19 03:23:34;;;;;;;13.33;3.93;;;;;;;14.77;100.00;99812.38;5031491;28;20537;-88
2023/09/19 03:26:04;;;;;;;9.82;4.10;;;;;;;14.76;100.00;99819.78;5039737;28;20441;-90
2023/09/19 03:28:36;;;;;;;9.70;3.70;;;;;;;14.84;100.00;99814.59;5032039;28;20431;-90
2023/09/19 03:31:06;;;;;;;12.07;3.80;;;;;;;14.83;100.00;99813.81;5031794;28;20895;-86
2023/09/19 03:33:40;;;;;;;10.82;3.85;;;;;;;14.79;100.00;99821.06;5048105;28;20791;-87
2023/09/19 03:36:14;;;;;;;8.68;4.15;;;;;;;14.76;100.00;99811.56;5031556;28;20411;-89
2023/09/19 03:38:42;;;;;;;9.65;3.90;;;;;;;14.81;100.00;99810.56;5030980;28;20430;-90
2023/09/19 03:41:17;;;;;;;10.00;3.95;;;;;;;14.76;100.00;99808.00;5031384;28;20902;-89
2023/09/19 03:43:46;;;;;;;11.90;4.20;;;;;;;14.77;100.00;99807.69;5031636;28;20438;-89
2023/09/19 03:46:15;;;;;;;10.85;3.85;;;;;;;14.73;100.00;99805.94;5048099;28;20419;-89
2023/09/19 03:48:45;;;;;;;9.85;3.78;;;;;;;14.68;100.00;99812.41;5028306;28;20430;-90
2023/09/19 03:51:13;;;;;;;13.18;4.40;;;;;;;14.66;100.00;99816.63;5031020;28;20426;-89
2023/09/19 03:53:41;;;;;;;9.60;3.60;;;;;;;14.71;100.00;99817.22;5047923;28;20427;-90
2023/09/19 03:56:10;;;;;;;8.32;3.60;;;;;;;14.83;100.00;99815.72;5030785;28;20416;-90
2023/09/19 03:58:39;;;;;;;9.20;3.30;;;;;;;14.77;100.00;99813.16;5030428;28;20430;-88
2023/09/19 04:01:13;;;;;;;8.80;3.10;;;;;;;14.63;100.00;99823.53;5030470;28;20403;-88
2023/09/19 04:03:47;;;;;;;9.43;3.03;;;;;;;14.59;100.00;99820.63;5022618;28;20449;-88
2023/09/19 04:06:17;;;;;;;7.35;2.90;;;;;;;14.56;100.00;99826.75;5031442;28;20426;-88
2023/09/19 04:08:47;;;;;;;8.95;3.15;;;;;;;14.53;100.00;99818.38;5026701;28;20422;-87
2023/09/19 04:11:21;;;;;;;7.53;2.67;;;;;;;14.55;100.00;99824.34;5032336;28;20430;-86
2023/09/19 04:13:49;;;;;;;10.40;3.00;;;;;;;14.32;100.00;99834.72;5030522;28;20931;-86
2023/09/19 04:16:22;;;;;;;7.82;2.80;;;;;;;14.37;100.00;99829.06;5030549;28;20415;-90
2023/09/19 04:18:57;;;;;;;6.72;2.60;;;;;;;14.28;100.00;99840.84;5030081;28;20426;-87
2023/09/19 04:21:28;;;;;;;7.40;2.58;;;;;;;14.25;100.00;99844.25;5030448;28;20411;-88
2023/09/19 04:23:56;;;;;;;7.97;2.77;;;;;;;14.14;100.00;99842.16;5031991;28;20395;-89
2023/09/19 04:26:26;;;;;;;9.05;2.72;;;;;;;14.08;100.00;99849.72;5046140;28;20415;-88
2023/09/19 04:29:01;;;;;;;7.07;2.42;;;;;;;14.04;100.00;99843.28;5035701;28;20827;-92
2023/09/19 04:31:29;;;;;;;6.20;2.50;;;;;;;14.02;100.00;99856.50;5026627;28;20423;-87
2023/09/19 04:34:03;;;;;;;9.75;2.47;;;;;;;14.04;100.00;99870.66;5029052;28;20787;-88
2023/09/19 04:36:33;;;;;;;9.13;2.50;;;;;;;13.88;100.00;99865.69;5030411;28;20419;-89
2023/09/19 04:39:04;;;;;;;7.47;2.30;;;;;;;13.94;100.00;99883.53;5029386;28;20404;-89
2023/09/19 04:41:33;;;;;;;8.55;2.22;;;;;;;13.77;100.00;99884.34;5026279;28;21283;-88
2023/09/19 04:44:01;;;;;;;9.18;2.30;;;;;;;13.74;100.00;99901.38;5027459;28;20482;-89
2023/09/19 04:46:34;;;;;;;7.25;2.03;;;;;;;13.79;100.00;99900.41;5037077;28;20742;-89
2023/09/19 04:49:03;;;;;;;6.03;1.95;;;;;;;13.72;100.00;99905.56;5045446;28;20450;-91
2023/09/19 04:51:34;;;;;;;6.35;2.03;;;;;;;13.72;100.00;99900.09;5029954;28;21143;-89
2023/09/19 04:54:03;;;;;;;8.27;2.00;;;;;;;13.63;100.00;99913.75;5030047;28;20434;-88
2023/09/19 04:56:32;;;;;;;7.85;1.75;;;;;;;13.69;100.00;99904.28;5030487;28;20407;-87
2023/09/19 04:59:05;;;;;;;5.18;1.63;;;;;;;13.64;100.00;99918.09;5021094;28;20422;-90
2023/09/19 05:01:33;;;;;;;6.57;1.65;;;;;;;13.59;100.00;99916.31;5029866;28;20434;-88
2023/09/19 05:04:02;;;;;;;7.07;1.80;;;;;;;13.55;100.00;99926.28;5027427;28;20458;-89
2023/09/19 05:06:30;;;;;;;8.15;1.77;;;;;;;13.48;100.00;99925.13;5030187;28;20421;-89
2023/09/19 05:09:00;;;;;;;7.72;1.85;;;;;;;13.41;100.00;99928.34;5046126;28;20818;-88
2023/09/19 05:11:30;;;;;;;7.07;1.70;;;;;;;13.40;100.00;99924.78;5030546;28;20899;-89
2023/09/19 05:14:03;;;;;;;7.63;1.73;;;;;;;13.38;100.00;99926.22;5028488;28;20430;-88
2023/09/19 05:16:36;;;;;;;8.32;1.80;;;;;;;13.35;100.00;99937.75;5029482;28;20411;-86
2023/09/19 05:19:11;;;;;;;8.45;1.60;;;;;;;13.27;100.00;99945.63;5028891;28;20419;-88
2023/09/19 05:21:39;;;;;;;9.10;1.70;;;;;;;13.36;100.00;99953.09;5037768;28;20422;-88
2023/09/19 05:24:14;;;;;;;6.20;1.55;;;;;;;13.34;100.00;99949.81;5025146;28;20431;-90
2023/09/19 05:26:48;;;;;;;7.05;1.63;;;;;;;13.26;100.00;99938.53;5029271;28;20424;-87
2023/09/19 05:29:21;;;;;;;6.15;1.35;;;;;;;13.27;100.00;99944.81;5025274;28;20422;-88
2023/09/19 05:31:49;;;;;;;6.40;1.60;;;;;;;13.24;100.00;99956.38;5029657;28;20435;-87
2023/09/19 05:34:22;;;;;;;6.22;1.80;;;;;;;13.25;100.00;99963.44;5029096;28;20453;-89
2023/09/19 05:36:52;;;;;;;6.15;1.60;;;;;;;13.22;100.00;99972.28;5025621;28;20429;-88
2023/09/19 05:39:26;;;;;;;9.43;1.70;;;;;;;13.12;100.00;99964.34;5020346;28;20430;-89
2023/09/19 05:42:00;;;;;;;10.85;1.75;;;;;;;13.03;100.00;99967.84;5027618;28;20422;-89
2023/09/19 05:44:33;;;;;;;12.48;1.80;;;;;;;13.13;100.00;99968.69;5026202;28;20445;-90
2023/09/19 05:47:01;;;;;;;9.50;1.90;;;;;;;12.96;100.00;99974.88;5030513;28;20403;-91
2023/09/19 05:49:35;;;;;;;8.13;1.60;;;;;;;13.06;100.00;99977.34;5023632;28;20425;-92
2023/09/19 05:52:04;;;;;;;5.55;1.50;;;;;;;13.05;100.00;99973.00;5037410;28;20416;-89
2023/09/19 05:54:34;;;;;;;11.63;1.90;;;;;;;12.95;100.00;99974.06;5029414;28;20453;-89
2023/09/19 05:57:03;;;;;;;9.32;2.15;;;;;;;13.05;100.00;99973.00;5036104;28;20434;-88
2023/09/19 05:59:31;;;;;;;9.93;1.90;;;;;;;13.15;100.00;99977.41;5046048;28;20512;-88
2023/09/19 06:02:05;;;;;;;9.40;2.22;;;;;;;13.02;100.00;99969.00;5028429;28;20431;-87
2023/09/19 06:04:40;;;;;;;5.75;1.50;;;;;;;13.17;100.00;99973.22;5028953;28;20467;-92
2023/09/19 06:07:08;;;;;;;8.93;1.90;;;;;;;13.17;100.00;99975.16;5028683;28;20924;-87
2023/09/19 06:09:38;;;;;;;8.05;2.00;;;;;;;13.25;100.00;99974.38;5039354;28;20443;-91
2023/09/19 06:12:07;;;;;;;9.43;1.70;;;;;;;13.26;100.00;99976.78;5028649;28;20818;-88
2023/09/19 06:14:35;;;;;;;6.80;1.80;;;;;;;13.35;100.00;99978.75;5022892;28;20939;-89
2023/09/19 06:17:09;;;;;;;9.63;1.80;;;;;;;13.41;100.00;99989.25;5027750;28;20434;-86
2023/09/19 06:19:37;;;;;;;8.15;1.67;;;;;;;13.45;100.00;99975.78;5045316;28;20435;-88
2023/09/19 06:22:05;;;;;;;7.43;1.90;;;;;;;13.59;100.00;99978.41;5027935;28;20434;-88
2023/09/19 06:24:40;;;;;;;6.90;1.80;;;;;;;13.53;100.00;99980.44;5030662;28;20415;-87
2023/09/19 06:27:08;;;;;;;8.80;2.05;;;;;;;13.63;100.00;99976.66;5029368;28;20457;-87
2023/09/19 06:29:41;;;;;;;10.67;1.87;;;;;;;13.75;100.00;99995.97;5027858;28;20433;-87
2023/09/19 06:32:15;;;;;;;7.28;1.88;;;;;;;13.86;100.00;99988.25;5028493;28;20433;-88
2023/09/19 06:34:43;;;;;;;7.38;1.77;;;;;;;13.92;100.00;100000.66;5039360;28;20447;-90
2023/09/19 06:37:11;;;;;;;11.47;2.27;;;;;;;14.06;100.00;99994.25;5032237;28;20427;-88
2023/09/19 06:39:41;;;;;;;10.52;1.90;;;;;;;14.07;100.00;99985.72;5034443;28;20431;-90
2023/09/19 06:42:10;;;;;;;10.32;1.88;;;;;;;14.11;100.00;99994.09;5038092;28;20419;-90
2023/09/19 06:44:39;;;;;;;8.60;1.90;;;;;;;14.17;100.00;99987.34;5048975;28;20435;-90
2023/09/19 06:47:12;;;;;;;9.13;2.30;;;;;;;14.18;100.00;99999.88;5042329;28;20423;-87
2023/09/19 06:49:40;;;;;;;10.53;2.13;;;;;;;14.24;100.00;100008.78;5041518;28;20808;-90
2023/09/19 06:52:09;;;;;;;8.63;1.80;;;;;;;14.25;100.00;99988.47;5033279;28;20410;-87
2023/09/19 06:54:37;;;;;;;8.35;1.88;;;;;;;14.32;100.00;99996.19;5048889;28;20431;-88
2023/09/19 06:57:09;;;;;;;10.57;2.00;;;;;;;14.23;100.00;100002.47;5049114;28;20423;-91
2023/09/19 06:59:38;;;;;;;10.05;2.30;;;;;;;14.37;100.00;100007.00;5032109;28;20415;-90
2023/09/19 07:02:08;;;;;;;7.40;2.10;;;;;;;14.43;100.00;100012.00;5034471;28;20741;-90
2023/09/19 07:04:36;;;;;;;9.15;2.05;;;;;;;14.38;100.00;100001.19;5036982;28;20431;-90
2023/09/19 07:07:04;;;;;;;9.00;2.03;;;;;;;14.41;100.00;100003.28;5033049;28;20771;-93
2023/09/19 07:09:33;;;;;;;9.30;2.20;;;;;;;14.60;100.00;100010.38;5032544;28;20422;-86
2023/09/19 07:12:01;;;;;;;8.68;2.17;;;;;;;14.58;100.00;100009.88;5031923;28;20426;-86
2023/09/19 07:14:35;;;;;;;13.23;2.20;;;;;;;14.51;100.00;100006.81;5031733;28;20933;-90
2023/09/19 07:17:04;;;;;;;11.18;2.30;;;;;;;14.56;100.00;99999.25;5032328;28;20875;-87
2023/09/19 07:19:38;;;;;;;11.05;2.10;;;;;;;14.58;100.00;100010.69;5032956;28;20429;-93
2023/09/19 07:22:11;;;;;;;10.27;2.30;;;;;;;14.68;100.00;100012.34;5034734;28;20441;-91
2023/09/19 07:24:44;;;;;;;8.40;2.10;;;;;;;14.73;100.00;100020.34;5030395;28;20436;-89
2023/09/19 07:27:19;;;;;;;11.20;2.20;;;;;;;14.62;100.00;100016.31;5031449;28;20430;-90
2023/09/19 07:29:48;;;;;;;13.25;2.42;;;;;;;14.71;100.00;100024.56;5043035;28;20439;-88
2023/09/19 07:32:17;;;;;;;11.80;2.33;;;;;;;14.70;100.00;100036.66;5033886;28;20419;-94
2023/09/19 07:34:46;;;;;;;11.13;2.35;;;;;;;14.81;100.00;100029.72;5031467;28;20888;-90
2023/09/19 07:37:16;;;;;;;13.43;2.35;;;;;;;14.67;100.00;100042.78;5031441;28;20423;-89
2023/09/19 07:39:50;;;;;;;12.35;2.20;;;;;;;14.79;100.00;100051.94;5048287;28;20423;-87
2023/09/19 07:42:19;;;;;;;11.27;2.38;;;;;;;14.88;100.00;100042.91;5031661;28;20883;-88
2023/09/19 07:44:50;;;;;;;12.60;2.30;;;;;;;14.96;100.00;100061.28;5047516;28;20411;-89
2023/09/19 07:47:23;;;;;;;12.13;2.55;;;;;;;14.92;100.00;100046.63;5030538;28;20430;-91
2023/09/19 07:49:52;;;;;;;10.43;2.75;;;;;;;14.94;100.00;100044.34;5031255;28;20779;-89
2023/09/19 07:52:21;;;;;;;9.40;2.42;;;;;;;14.96;100.00;100031.94;5041429;28;20810;-90
2023/09/19 07:54:49;;;;;;;10.40;2.28;;;;;;;14.97;100.00;100062.91;5039899;28;20426;-88
2023/09/19 07:57:18;;;;;;;10.77;2.50;;;;;;;14.98;100.00;100059.00;5032773;28;20450;-87
2023/09/19 07:59:46;;;;;;;8.32;2.17;;;;;;;14.97;100.00;100057.41;5031463;28;20422;-87
2023/09/19 08:02:16;;;;;;;11.30;2.75;;;;;;;15.14;100.00;100062.84;5031790;28;20423;-91
2023/09/19 08:04:45;;;;;;;12.40;2.65;;;;;;;15.27;100.00;100068.47;5030955;28;20903;-89
2023/09/19 08:07:14;;;;;;;14.82;2.72;;;;;;;15.39;100.00;100051.34;5030067;28;20416;-88
2023/09/19 08:09:46;;;;;;;10.27;2.60;;;;;;;15.31;100.00;100044.75;5031747;28;20419;-91
2023/09/19 08:12:24;;;;;;;8.60;2.60;;;;;;;15.32;100.00;100064.75;5031137;28;20419;-88
2023/09/19 08:14:59;;;;;;;12.70;2.90;;;;;;;15.16;100.00;100057.03;5030478;28;20436;-92
2023/09/19 08:17:36;;;;;;;9.70;2.90;;;;;;;15.05;100.00;100064.81;5041809;28;20409;-88
2023/09/19 08:20:05;;;;;;;12.67;2.87;;;;;;;15.12;100.00;100056.06;5029109;28;20423;-90
2023/09/19 08:22:38;;;;;;;11.77;2.50;;;;;;;15.09;100.00;100063.03;5031065;28;20907;-89
2023/09/19 08:25:07;;;;;;;10.75;2.90;;;;;;;15.01;100.00;100054.81;5026705;28;20464;-93
2023/09/19 08:27:36;;;;;;;14.88;2.65;;;;;;;14.96;100.00;100053.84;5047033;28;21071;-90
2023/09/19 08:30:06;;;;;;;11.50;2.67;;;;;;;15.06;100.00;100068.34;5030921;28;20449;-89
2023/09/19 08:32:35;;;;;;;11.52;2.80;;;;;;;14.97;100.00;100062.91;5031125;28;20422;-89
2023/09/19 08:35:04;;;;;;;11.33;3.00;;;;;;;14.99;100.00;100066.09;5035886;28;20423;-90
2023/09/19 08:37:33;;;;;;;13.65;3.00;;;;;;;15.05;100.00;100066.72;5025678;28;20938;-91
2023/09/19 08:40:01;;;;;;;11.65;2.63;;;;;;;15.14;100.00;100075.75;5043819;28;20436;-87
2023/09/19 08:42:29;;;;;;;11.10;2.55;;;;;;;15.21;100.00;100080.75;5044895;28;20646;-91
2023/09/19 08:45:00;;;;;;;10.88;2.40;;;;;;;15.25;100.00;100087.19;5044743;28;20446;-90
2023/09/19 08:47:40;;;;;;;8.40;2.43;;;;;;;15.30;100.00;100087.00;5029726;28;21088;-87
2023/09/19 08:50:25;;;;;;;13.87;2.50;;;;;;;15.19;100.00;100075.59;5027200;28;20758;-90
2023/09/19 08:52:56;;;;;;;10.93;2.50;;;;;;;15.16;100.00;100076.22;5028174;28;20435;-92
2023/09/19 08:55:29;;;;;;;12.50;2.80;;;;;;;15.32;100.00;100065.56;5027115;28;20422;-90
2023/09/19 08:58:02;;;;;;;14.75;2.67;;;;;;;15.16;100.00;100068.00;5028731;28;21104;-89
2023/09/19 09:00:36;;;;;;;10.50;2.50;;;;;;;15.23;100.00;100062.84;5029916;28;20428;-89
2023/09/19 09:03:11;;;;;;;12.55;2.88;;;;;;;15.28;100.00;100068.13;5029072;28;20890;-91
2023/09/19 09:05:46;;;;;;;13.82;2.60;;;;;;;15.20;100.00;100073.66;5032334;28;20418;-89
2023/09/19 09:08:21;;;;;;;9.13;2.80;;;;;;;15.18;100.00;100071.22;5045381;28;20423;-91
2023/09/19 09:10:55;;;;;;;14.70;2.85;;;;;;;15.19;100.00;100075.59;5023343;28;20422;-92
2023/09/19 09:13:26;;;;;;;9.38;2.38;;;;;;;15.23;100.00;100072.97;5042906;28;20407;-91
2023/09/19 09:15:59;;;;;;;9.65;2.70;;;;;;;15.19;100.00;100089.28;5030021;28;20427;-86
2023/09/19 09:18:34;;;;;;;11.63;2.95;;;;;;;15.35;100.00;100064.88;5033821;28;20437;-90
2023/09/19 09:21:03;;;;;;;8.98;2.42;;;;;;;15.26;100.00;100078.63;5029101;28;20442;-90
2023/09/19 09:23:32;;;;;;;9.98;2.60;;;;;;;15.29;100.00;100079.91;5034913;28;20915;-89
2023/09/19 09:26:02;;;;;;;12.15;3.15;;;;;;;15.44;100.00;100079.38;5030229;28;20654;-90
2023/09/19 09:28:33;;;;;;;10.57;2.35;;;;;;;15.55;100.00;100079.03;5046750;28;20425;-91
2023/09/19 09:31:07;;;;;;;13.80;2.37;;;;;;;15.67;100.00;100083.81;5029157;28;20896;-91
2023/09/19 09:33:37;;;;;;;10.20;2.63;;;;;;;15.66;100.00;100088.53;5027289;28;20426;-89
2023/09/19 09:36:06;;;;;;;12.25;2.53;;;;;;;15.58;100.00;100090.16;5045826;28;20431;-90
2023/09/19 09:38:45;;;;;;;14.37;2.60;;;;;;;15.48;100.00;100085.81;5019524;28;20887;-89
2023/09/19 09:41:16;;;;;;;10.40;2.60;;;;;;;15.56;100.00;100088.88;5029324;28;20422;-92
2023/09/19 09:43:49;;;;;;;13.13;2.63;;;;;;;15.56;100.00;100086.91;5040276;28;21320;-89
2023/09/19 09:49:18;;;;;;;10.68;2.30;;;;;;;15.72;100.00;100092.69;5015879;28;20753;-90
2023/09/19 09:51:59;;;;;;;13.90;2.90;;;;;;;15.69;100.00;100093.34;5044401;28;20427;-86
2023/09/19 09:54:34;;;;;;;12.18;2.20;;;;;;;15.69;100.00;100103.50;5033511;28;20427;-90
2023/09/19 09:57:13;;;;;;;11.10;2.50;;;;;;;15.90;100.00;100100.88;5029930;28;20445;-90
2023/09/19 09:59:59;;;;;;;9.43;2.22;;;;;;;15.97;100.00;100106.63;5028902;28;20427;-90
2023/09/19 10:02:40;;;;;;;10.15;2.25;;;;;;;16.27;100.00;100095.66;5031768;28;20415;-89
2023/09/19 10:05:21;;;;;;;10.68;2.40;;;;;;;16.13;100.00;100102.19;5029867;28;20426;-87
2023/09/19 10:07:53;;;;;;;13.38;2.70;;;;;;;16.05;100.00;100107.75;5028677;28;20422;-90
2023/09/19 10:10:39;;;;;;;9.07;1.90;;;;;;;16.12;100.00;100103.31;5032566;28;20433;-90
2023/09/19 10:13:13;;;;;;;11.85;2.10;;;;;;;16.21;100.00;100100.53;5048347;28;20434;-90
2023/09/19 10:15:50;;;;;;;13.02;2.20;;;;;;;16.33;100.00;100097.06;5032452;28;20810;-93
2023/09/19 10:18:22;;;;;;;11.02;2.13;;;;;;;16.22;100.00;100099.41;5030814;28;20434;-91
2023/09/19 10:20:57;;;;;;;7.60;2.05;;;;;;;16.47;100.00;100097.63;5038722;28;20422;-88
2023/09/19 10:23:29;;;;;;;9.48;1.90;;;;;;;16.47;100.00;100105.88;5049051;28;20906;-89
2023/09/19 10:26:01;;;;;;;10.02;1.95;;;;;;;16.35;100.00;100102.22;5032543;28;20419;-90
2023/09/19 10:28:31;;;;;;;10.93;1.70;;;;;;;16.44;100.00;100097.50;5029898;28;20839;-89
2023/09/19 10:31:01;;;;;;;10.50;2.22;;;;;;;16.56;100.00;100107.72;5037829;28;20423;-90
2023/09/19 10:33:37;;;;;;;11.03;2.20;;;;;;;16.32;100.00;100103.69;5031146;28;20422;-89
2023/09/19 10:36:09;;;;;;;11.48;1.92;;;;;;;16.44;100.00;100102.97;5032854;28;20478;-89
2023/09/19 10:38:40;;;;;;;11.25;2.30;;;;;;;16.47;100.00;100114.13;5041532;28;20787;-89
2023/09/19 10:41:11;;;;;;;9.37;1.77;;;;;;;16.37;100.00;100117.25;5043857;28;20438;-86
2023/09/19 10:43:49;;;;;;;9.38;1.70;;;;;;;16.25;100.00;100111.66;5033181;28;20430;-87
2023/09/19 10:46:22;;;;;;;9.48;1.75;;;;;;;16.32;100.00;100104.50;5049226;28;20426;-91
2023/09/19 10:49:00;;;;;;;11.60;2.60;;;;;;;16.45;100.00;100105.38;5049850;28;20430;-90
2023/09/19 10:51:36;;;;;;;7.85;1.83;;;;;;;16.52;100.00;100106.78;5033545;28;20437;-89
2023/09/19 10:54:11;;;;;;;9.18;1.88;;;;;;;16.28;100.00;100095.34;5029390;28;20477;-91
2023/09/19 10:56:50;;;;;;;8.32;2.03;;;;;;;16.38;100.00;100101.56;5028763;28;20446;-90
2023/09/19 10:59:20;;;;;;;11.98;1.73;;;;;;;16.39;100.00;100101.25;5033541;28;20795;-89
2023/09/19 11:01:56;;;;;;;9.07;1.70;;;;;;;16.51;100.00;100100.50;5049553;28;20415;-89
2023/09/19 11:04:27;;;;;;;10.57;2.15;;;;;;;16.74;100.00;100097.44;5031466;28;20430;-88
2023/09/19 11:07:11;;;;;;;8.65;1.60;;;;;;;16.77;100.00;100099.50;5049549;28;20434;-89
2023/09/19 11:09:45;;;;;;;7.75;1.63;;;;;;;16.83;100.00;100098.16;5031821;28;20810;-91
2023/09/19 11:12:43;;;;;;;8.00;1.75;;;;;;;16.91;100.00;100096.50;5032487;28;20427;-89
2023/09/19 11:15:13;;;;;;;7.72;1.60;;;;;;;16.90;100.00;100094.91;5031547;28;20764;-90
2023/09/19 11:17:47;;;;;;;7.65;1.95;;;;;;;16.83;100.00;100104.47;5038591;28;20419;-91
2023/09/19 11:20:35;;;;;;;11.18;1.77;;;;;;;16.80;100.00;100104.31;5045545;28;20423;-89
2023/09/19 11:23:30;;;;;;;8.57;1.70;;;;;;;16.92;100.00;100109.13;5047991;28;20414;-91
2023/09/19 11:25:59;;;;;;;10.50;1.80;;;;;;;16.76;100.00;100097.88;5026657;28;20430;-90
2023/09/19 11:28:38;;;;;;;10.40;1.60;;;;;;;16.62;100.00;100093.47;5028307;28;20423;-88
2023/09/19 11:31:53;;;;;;;9.63;1.98;;;;;;;16.45;100.00;100102.66;5029353;28;20427;-86
2023/09/19 11:34:50;;;;;;;10.07;1.90;;;;;;;16.63;100.00;100100.56;5048820;28;20888;-90
2023/09/19 11:38:02;;;;;;;9.37;1.70;;;;;;;16.52;100.00;100101.28;5030918;28;20443;-89
2023/09/19 11:40:32;;;;;;;8.05;2.20;;;;;;;16.59;100.00;100107.09;5032582;28;20423;-89
2023/09/19 11:43:20;;;;;;;8.93;2.00;;;;;;;16.46;100.00;100095.19;5026768;28;20434;-89
2023/09/19 11:46:05;;;;;;;10.77;2.15;;;;;;;16.56;100.00;100094.00;5030395;28;20432;-89
2023/09/19 11:48:43;;;;;;;7.43;1.92;;;;;;;16.86;100.00;100102.16;5031639;28;20427;-86